createdAt,value
2022-11-12T00:01:31.237Z,8.37
2022-11-12T00:03:59.877Z,8.60
2022-11-12T00:06:28.771Z,8.00
2022-11-12T00:08:57.315Z,8.10
2022-11-12T00:11:26.169Z,8.43
2022-11-12T00:13:54.505Z,8.73
2022-11-12T00:16:24.326Z,11.50
2022-11-12T00:18:52.709Z,10.87
2022-11-12T00:21:21.106Z,9.93
2022-11-12T00:23:49.451Z,11.27
2022-11-12T00:26:18.144Z,9.57
2022-11-12T00:28:46.702Z,10.03
2022-11-12T00:31:15.057Z,9.30
2022-11-12T00:33:45.681Z,10.90
2022-11-12T00:36:14.138Z,11.00
2022-11-12T00:38:42.685Z,12.20
2022-11-12T00:41:11.015Z,11.30
2022-11-12T00:43:40.040Z,10.03
2022-11-12T00:46:08.432Z,10.77
2022-11-12T00:48:37.015Z,10.33
2022-11-12T00:51:07.456Z,10.17
2022-11-12T00:53:37.793Z,8.93
2022-11-12T00:56:08.221Z,8.30
2022-11-12T00:59:26.093Z,9.10
2022-11-12T01:02:43.212Z,8.50
2022-11-12T01:06:09.775Z,9.13
2022-11-12T01:08:45.097Z,8.23
2022-11-12T01:11:41.809Z,8.30
2022-11-12T01:14:17.652Z,8.30
2022-11-12T01:22:48.997Z,7.40
2022-11-12T01:27:42.243Z,7.70
2022-11-12T01:34:13.078Z,9.17
2022-11-12T01:37:00.037Z,10.97
2022-11-12T01:39:31.343Z,11.40
2022-11-12T01:42:08.502Z,11.10
2022-11-12T01:49:38.976Z,10.10
2022-11-12T01:52:53.903Z,8.87
2022-11-12T01:55:37.569Z,8.80
2022-11-12T02:01:23.992Z,7.70
2022-11-12T02:03:53.854Z,7.30
2022-11-12T02:07:17.683Z,7.90
2022-11-12T02:13:27.701Z,9.80
2022-11-12T02:16:36.572Z,8.73
2022-11-12T02:23:06.291Z,9.17
2022-11-12T02:25:35.961Z,8.63
2022-11-12T02:28:08.678Z,9.50
2022-11-12T02:30:40.418Z,8.97
2022-11-12T02:33:09.005Z,9.37
2022-11-12T02:35:37.466Z,8.77
2022-11-12T02:38:08.868Z,8.90
2022-11-12T02:43:21.422Z,7.63
2022-11-12T02:45:50.174Z,7.53
2022-11-12T02:48:19.422Z,7.53
2022-11-12T02:50:48.995Z,7.13
2022-11-12T02:53:18.871Z,7.47
2022-11-12T02:55:47.216Z,8.63
2022-11-12T02:58:16.108Z,8.40
2022-11-12T03:00:45.083Z,7.83
2022-11-12T03:03:16.087Z,8.53
2022-11-12T03:05:46.948Z,8.87
2022-11-12T03:08:15.750Z,9.40
2022-11-12T03:10:45.615Z,9.17
2022-11-12T03:13:14.141Z,9.63
2022-11-12T03:15:42.478Z,10.37
2022-11-12T03:18:11.080Z,10.37
2022-11-12T03:20:39.781Z,10.37
2022-11-12T03:23:10.908Z,11.00
2022-11-12T03:25:39.857Z,10.73
2022-11-12T03:28:12.658Z,10.43
2022-11-12T03:30:43.403Z,10.23
2022-11-12T03:33:13.493Z,10.30
2022-11-12T03:35:41.833Z,10.30
2022-11-12T03:38:10.280Z,9.30
2022-11-12T03:40:38.795Z,9.10
2022-11-12T03:43:07.166Z,8.13
2022-11-12T03:45:37.123Z,8.27
2022-11-12T03:48:05.928Z,7.87
2022-11-12T03:50:34.393Z,7.47
2022-11-12T03:53:02.810Z,7.00
2022-11-12T03:55:32.142Z,7.30
2022-11-12T03:58:00.725Z,7.10
2022-11-12T04:00:30.494Z,7.53
2022-11-12T04:03:00.338Z,8.03
2022-11-12T04:05:46.573Z,8.17
2022-11-12T04:08:34.952Z,8.20
2022-11-12T04:11:05.224Z,8.03
2022-11-12T04:13:33.934Z,8.53
2022-11-12T04:16:21.975Z,9.27
2022-11-12T04:19:10.463Z,9.33
2022-11-12T04:21:54.997Z,8.93
2022-11-12T04:24:46.344Z,8.73
2022-11-12T04:27:17.192Z,8.80
2022-11-12T04:30:04.021Z,8.20
2022-11-12T04:32:34.384Z,8.10
2022-11-12T04:35:05.487Z,7.90
2022-11-12T04:37:45.353Z,8.27
2022-11-12T04:40:32.470Z,7.47
2022-11-12T04:43:18.791Z,7.27
2022-11-12T04:45:49.515Z,7.70
2022-11-12T04:48:18.271Z,8.17
2022-11-12T04:50:51.386Z,7.70
2022-11-12T04:53:19.851Z,7.77
2022-11-12T04:55:51.613Z,7.60
2022-11-12T04:58:19.991Z,7.37
2022-11-12T05:00:48.844Z,7.97
2022-11-12T05:03:18.923Z,6.90
2022-11-12T05:05:48.811Z,7.70
2022-11-12T05:08:17.136Z,7.27
2022-11-12T05:10:46.003Z,7.20
2022-11-12T05:13:14.465Z,6.60
2022-11-12T05:15:44.961Z,6.50
2022-11-12T05:18:13.816Z,6.80
2022-11-12T05:20:42.145Z,6.90
2022-11-12T05:23:13.417Z,6.80
2022-11-12T05:25:42.152Z,6.87
2022-11-12T05:28:11.012Z,6.57
2022-11-12T05:30:39.511Z,6.77
2022-11-12T05:33:10.112Z,6.60
2022-11-12T05:35:38.454Z,6.63
2022-11-12T05:38:06.785Z,6.70
2022-11-12T05:40:36.622Z,6.83
2022-11-12T05:43:05.613Z,7.60
2022-11-12T05:45:34.070Z,7.17
2022-11-12T05:48:02.478Z,8.50
2022-11-12T05:50:39.907Z,7.00
2022-11-12T05:53:13.707Z,7.80
2022-11-12T05:55:43.752Z,7.27
2022-11-12T05:58:12.359Z,7.27
2022-11-12T06:00:41.732Z,6.93
2022-11-12T06:03:11.282Z,7.17
2022-11-12T06:05:40.267Z,7.20
2022-11-12T06:08:08.818Z,7.13
2022-11-12T06:10:39.132Z,7.30
2022-11-12T06:13:11.675Z,7.03
2022-11-12T06:15:40.473Z,6.83
2022-11-12T06:18:10.143Z,7.43
2022-11-12T06:20:38.851Z,7.93
2022-11-12T06:23:07.455Z,8.40
2022-11-12T06:25:36.253Z,8.10
2022-11-12T06:28:04.911Z,8.97
2022-11-12T06:30:36.208Z,8.80
2022-11-12T06:33:04.996Z,8.03
2022-11-12T06:35:34.022Z,9.17
2022-11-12T06:38:02.582Z,9.73
2022-11-12T06:40:32.375Z,8.23
2022-11-12T06:43:02.211Z,8.93
2022-11-12T06:45:31.226Z,8.80
2022-11-12T06:48:02.154Z,8.10
2022-11-12T06:50:30.898Z,7.90
2022-11-12T06:53:00.577Z,7.73
2022-11-12T06:55:29.558Z,8.33
2022-11-12T06:58:01.882Z,8.07
2022-11-12T07:00:36.514Z,7.67
2022-11-12T07:03:08.947Z,7.47
2022-11-12T07:05:38.887Z,7.43
2022-11-12T07:08:07.980Z,7.90
2022-11-12T07:10:36.694Z,7.33
2022-11-12T07:13:05.347Z,7.70
2022-11-12T07:15:33.831Z,6.90
2022-11-12T07:18:03.249Z,7.27
2022-11-12T07:20:33.113Z,7.23
2022-11-12T07:23:02.350Z,7.03
2022-11-12T07:25:31.054Z,7.13
2022-11-12T07:27:59.699Z,6.93
2022-11-12T07:30:30.449Z,7.80
2022-11-12T07:32:59.667Z,7.50
2022-11-12T07:35:28.485Z,7.87
2022-11-12T07:38:00.105Z,7.80
2022-11-12T07:40:29.011Z,6.40
2022-11-12T07:42:59.830Z,7.60
2022-11-12T07:45:28.641Z,7.00
2022-11-12T07:48:00.341Z,7.30
2022-11-12T07:50:29.404Z,6.83
2022-11-12T07:53:01.057Z,5.93
2022-11-12T07:55:29.651Z,6.70
2022-11-12T07:58:00.698Z,6.80
2022-11-12T08:00:29.287Z,7.23
2022-11-12T08:03:01.964Z,6.90
2022-11-12T08:05:30.590Z,6.57
2022-11-12T08:08:00.736Z,6.83
2022-11-12T08:10:29.289Z,7.70
2022-11-12T08:12:58.296Z,6.73
2022-11-12T08:15:27.450Z,6.87
2022-11-12T08:17:56.238Z,6.37
2022-11-12T08:20:24.796Z,6.83
2022-11-12T08:22:53.243Z,6.97
2022-11-12T08:25:23.062Z,6.70
2022-11-12T08:27:51.823Z,6.90
2022-11-12T08:30:20.546Z,6.27
2022-11-12T08:32:49.097Z,6.03
2022-11-12T08:35:17.934Z,5.70
2022-11-12T08:37:46.613Z,5.83
2022-11-12T08:40:16.088Z,5.50
2022-11-12T08:42:45.959Z,5.80
2022-11-12T08:45:20.941Z,5.43
2022-11-12T08:47:51.174Z,6.00
2022-11-12T08:50:19.930Z,5.53
2022-11-12T08:52:51.039Z,5.97
2022-11-12T08:55:19.479Z,5.37
2022-11-12T08:57:51.193Z,5.50
2022-11-12T09:00:19.993Z,5.60
2022-11-12T09:02:48.644Z,6.50
2022-11-12T09:05:17.231Z,5.80
2022-11-12T09:07:50.747Z,5.90
2022-11-12T09:10:20.199Z,5.40
2022-11-12T09:12:53.428Z,5.53
2022-11-12T09:15:38.511Z,5.70
2022-11-12T09:18:09.734Z,4.87
2022-11-12T09:20:38.532Z,5.10
2022-11-12T09:23:09.019Z,5.10
2022-11-12T09:25:37.949Z,5.00
2022-11-12T09:28:12.981Z,4.37
2022-11-12T09:30:45.432Z,4.60
2022-11-12T09:33:16.453Z,5.00
2022-11-12T09:35:46.231Z,4.97
2022-11-12T09:38:18.050Z,5.37
2022-11-12T09:41:07.139Z,4.40
2022-11-12T09:43:42.792Z,5.00
2022-11-12T09:46:27.639Z,5.27
2022-11-12T09:49:03.291Z,4.80
2022-11-12T09:51:34.697Z,4.73
2022-11-12T09:54:08.043Z,4.87
2022-11-12T09:56:36.678Z,4.43
2022-11-12T09:59:13.003Z,5.00
2022-11-12T10:01:59.315Z,4.70
2022-11-12T10:04:43.285Z,5.20
2022-11-12T10:07:18.921Z,4.97
2022-11-12T10:10:00.979Z,4.70
2022-11-12T10:12:41.864Z,4.57
2022-11-12T10:16:03.527Z,3.90
2022-11-12T10:18:46.622Z,4.27
2022-11-12T10:21:24.470Z,4.97
2022-11-12T10:23:54.584Z,4.20
2022-11-12T10:26:26.214Z,4.13
2022-11-12T10:29:02.230Z,4.60
2022-11-12T10:31:31.844Z,4.43
2022-11-12T10:34:15.743Z,4.40
2022-11-12T10:36:47.727Z,4.03
2022-11-12T10:39:34.561Z,3.87
2022-11-12T10:42:11.768Z,3.67
2022-11-12T10:44:42.471Z,4.30
2022-11-12T10:47:26.928Z,3.77
2022-11-12T10:50:12.342Z,3.80
2022-11-12T10:52:40.815Z,3.67
2022-11-12T10:55:18.074Z,3.63
2022-11-12T10:57:47.009Z,3.23
2022-11-12T11:00:21.375Z,3.27
2022-11-12T11:02:53.085Z,3.33
2022-11-12T11:05:32.230Z,3.33
2022-11-12T11:08:01.606Z,3.47
2022-11-12T11:10:32.143Z,3.63
2022-11-12T11:13:28.279Z,3.53
2022-11-12T11:16:01.729Z,3.53
2022-11-12T11:18:31.695Z,3.20
2022-11-12T11:21:09.853Z,3.50
2022-11-12T11:23:46.802Z,3.20
2022-11-12T11:26:27.700Z,3.63
2022-11-12T11:29:01.699Z,3.90
2022-11-12T11:31:41.380Z,3.27
2022-11-12T11:34:24.609Z,3.37
2022-11-12T11:37:01.980Z,4.40
2022-11-12T11:39:39.444Z,3.50
2022-11-12T11:42:22.989Z,3.37
2022-11-12T11:45:00.702Z,4.97
2022-11-12T11:47:59.468Z,4.90
2022-11-12T11:50:30.397Z,4.53
2022-11-12T11:53:20.088Z,4.20
2022-11-12T11:55:55.550Z,4.80
2022-11-12T11:58:49.132Z,4.63
2022-11-12T12:01:24.763Z,3.97
2022-11-12T12:04:20.612Z,3.97
2022-11-12T12:06:58.660Z,4.00
2022-11-12T12:09:36.058Z,4.07
2022-11-12T12:12:17.668Z,3.30
2022-11-12T12:14:59.213Z,4.20
2022-11-12T12:17:44.955Z,3.73
2022-11-12T12:20:21.286Z,3.27
2022-11-12T12:22:53.525Z,3.37
2022-11-12T12:25:28.680Z,2.90
2022-11-12T12:28:03.328Z,3.60
2022-11-12T12:30:36.658Z,2.87
2022-11-12T12:33:20.551Z,2.87
2022-11-12T12:35:55.544Z,2.80
2022-11-12T12:38:30.982Z,2.90
2022-11-12T12:41:07.856Z,2.63
2022-11-12T12:43:41.635Z,2.50
2022-11-12T12:46:12.961Z,2.70
2022-11-12T12:48:44.016Z,2.80
2022-11-12T12:51:13.463Z,2.73
2022-11-12T12:53:52.528Z,4.20
2022-11-12T12:56:49.864Z,2.93
2022-11-12T12:59:24.738Z,2.80
2022-11-12T13:02:01.259Z,2.70
2022-11-12T13:04:53.079Z,3.03
2022-11-12T13:07:39.631Z,3.10
2022-11-12T13:10:49.709Z,2.80
2022-11-12T13:13:32.472Z,2.60
2022-11-12T13:16:02.896Z,2.63
2022-11-12T13:19:02.097Z,2.70
2022-11-12T13:21:31.386Z,3.00
2022-11-12T13:24:11.571Z,3.80
2022-11-12T13:26:52.436Z,3.43
2022-11-12T13:29:25.552Z,2.87
2022-11-12T13:32:27.510Z,3.50
2022-11-12T13:35:29.187Z,2.67
2022-11-12T13:38:01.164Z,2.43
2022-11-12T13:40:43.195Z,2.90
2022-11-12T13:43:19.155Z,4.33
2022-11-12T13:45:54.728Z,4.80
2022-11-12T13:48:28.307Z,3.17
2022-11-12T13:50:59.524Z,2.80
2022-11-12T13:53:30.395Z,2.63
2022-11-12T13:55:59.496Z,2.50
2022-11-12T13:58:30.672Z,2.80
2022-11-12T14:01:02.673Z,2.50
2022-11-12T14:03:33.774Z,2.60
2022-11-12T14:06:08.861Z,3.07
2022-11-12T14:09:00.475Z,2.87
2022-11-12T14:11:54.307Z,2.77
2022-11-12T14:14:36.476Z,2.73
2022-11-12T14:17:22.136Z,2.80
2022-11-12T14:20:26.483Z,2.90
2022-11-12T14:22:55.962Z,4.97
2022-11-12T14:25:26.641Z,4.63
2022-11-12T14:27:56.386Z,3.63
2022-11-12T14:30:27.274Z,4.03
2022-11-12T14:33:08.686Z,3.80
2022-11-12T14:35:38.901Z,3.27
2022-11-12T14:38:13.907Z,3.80
2022-11-12T14:40:47.917Z,3.23
2022-11-12T14:43:30.924Z,3.40
2022-11-12T14:46:03.717Z,3.87
2022-11-12T14:48:37.847Z,3.87
2022-11-12T14:51:12.336Z,3.63
2022-11-12T14:53:44.785Z,3.60
2022-11-12T14:56:19.153Z,4.10
2022-11-12T14:58:57.065Z,24.13
2022-11-12T15:02:08.803Z,15.27
2022-11-12T15:04:21.875Z,17.23
2022-11-12T15:06:55.456Z,20.50
2022-11-12T15:09:38.216Z,9.97
2022-11-12T15:12:10.098Z,18.67
2022-11-12T15:14:39.349Z,5.80
2022-11-12T15:17:23.892Z,5.40
2022-11-12T15:19:54.014Z,6.10
2022-11-12T15:22:24.108Z,5.23
2022-11-12T15:24:52.999Z,4.83
2022-11-12T15:27:36.391Z,4.73
2022-11-12T15:30:20.823Z,4.57
2022-11-12T15:32:49.069Z,4.43
2022-11-12T15:35:39.439Z,4.57
2022-11-12T15:38:13.155Z,4.40
2022-11-12T15:40:45.097Z,38.83
2022-11-12T15:43:19.480Z,87.53
2022-11-12T15:45:50.685Z,66.57
2022-11-12T15:48:19.999Z,98.07
2022-11-12T15:50:50.559Z,56.43
2022-11-12T15:53:19.005Z,26.87
2022-11-12T15:55:48.339Z,14.93
2022-11-12T15:58:19.797Z,8.30
2022-11-12T16:00:48.944Z,26.97
2022-11-12T16:03:30.671Z,77.03
2022-11-12T16:06:08.680Z,60.37
2022-11-12T16:08:38.239Z,67.13
2022-11-12T16:11:27.954Z,46.70
2022-11-12T16:13:57.065Z,19.87
2022-11-12T16:16:27.240Z,23.67
2022-11-12T16:18:55.644Z,31.97
2022-11-12T16:21:26.164Z,18.60
2022-11-12T16:23:54.865Z,15.83
2022-11-12T16:26:28.584Z,9.97
2022-11-12T16:28:57.442Z,9.77
2022-11-12T16:31:26.144Z,9.53
2022-11-12T16:33:54.402Z,9.83
2022-11-12T16:36:22.851Z,12.70
2022-11-12T16:38:52.533Z,7.93
2022-11-12T16:41:21.032Z,7.93
2022-11-12T16:43:49.297Z,7.77
2022-11-12T16:46:27.003Z,11.10
2022-11-12T16:48:55.959Z,11.00
2022-11-12T16:51:25.114Z,9.60
2022-11-12T16:53:54.807Z,10.73
2022-11-12T16:56:24.409Z,12.77
2022-11-12T16:58:53.311Z,13.17
2022-11-12T17:01:26.701Z,13.90
2022-11-12T17:03:57.431Z,11.60
2022-11-12T17:06:33.935Z,11.20
2022-11-12T17:09:05.281Z,14.03
2022-11-12T17:11:36.361Z,13.70
2022-11-12T17:14:07.838Z,12.37
2022-11-12T17:16:36.226Z,13.07
2022-11-12T17:19:05.490Z,12.47
2022-11-12T17:21:33.894Z,12.27
2022-11-12T17:24:02.341Z,12.10
2022-11-12T17:26:32.647Z,12.67
2022-11-12T17:29:07.641Z,12.30
2022-11-12T17:31:37.130Z,11.83
2022-11-12T17:34:06.969Z,12.17
2022-11-12T17:36:40.636Z,12.90
2022-11-12T17:39:13.635Z,11.47
2022-11-12T17:41:43.530Z,12.00
2022-11-12T17:44:16.898Z,11.20
2022-11-12T17:46:46.302Z,10.87
2022-11-12T17:49:17.722Z,12.13
2022-11-12T17:51:47.137Z,11.23
2022-11-12T17:54:16.555Z,11.30
2022-11-12T17:56:46.263Z,12.50
2022-11-12T17:59:15.164Z,11.30
2022-11-12T18:01:44.018Z,10.97
2022-11-12T18:04:13.300Z,11.00
2022-11-12T18:06:42.170Z,11.63
2022-11-12T18:09:15.713Z,11.50
2022-11-12T18:11:47.677Z,11.00
2022-11-12T18:14:19.992Z,10.77
2022-11-12T18:16:48.490Z,11.30
2022-11-12T18:19:17.191Z,12.17
2022-11-12T18:21:46.872Z,12.00
2022-11-12T18:24:17.148Z,14.03
2022-11-12T18:26:46.927Z,12.43
2022-11-12T18:29:15.421Z,13.63
2022-11-12T18:31:44.717Z,12.63
2022-11-12T18:34:15.289Z,12.57
2022-11-12T18:36:44.426Z,14.93
2022-11-12T18:39:13.107Z,14.33
2022-11-12T18:41:42.289Z,15.17
2022-11-12T18:44:12.303Z,15.07
2022-11-12T18:46:40.781Z,14.53
2022-11-12T18:49:09.791Z,13.60
2022-11-12T18:51:39.477Z,12.97
2022-11-12T18:54:08.502Z,13.10
2022-11-12T18:56:38.222Z,13.00
2022-11-12T18:59:07.363Z,12.53
2022-11-12T19:01:37.360Z,12.83
2022-11-12T19:04:06.912Z,12.67
2022-11-12T19:06:37.049Z,12.00
2022-11-12T19:09:06.080Z,13.33
2022-11-12T19:11:34.440Z,12.23
2022-11-12T19:14:02.876Z,12.57
2022-11-12T19:16:31.183Z,11.93
2022-11-12T19:19:00.884Z,12.47
2022-11-12T19:21:29.514Z,12.13
2022-11-12T19:24:00.435Z,12.03
2022-11-12T19:26:30.332Z,12.47
2022-11-12T19:28:59.398Z,12.70
2022-11-12T19:31:29.364Z,12.57
2022-11-12T19:33:58.114Z,12.60
2022-11-12T19:36:28.678Z,13.47
2022-11-12T19:38:59.831Z,11.77
2022-11-12T19:41:28.296Z,11.80
2022-11-12T19:43:57.016Z,13.07
2022-11-12T19:46:25.443Z,13.50
2022-11-12T19:48:54.841Z,13.37
2022-11-12T19:51:24.539Z,13.17
2022-11-12T19:53:54.283Z,14.73
2022-11-12T19:56:22.731Z,12.90
2022-11-12T19:58:54.797Z,12.97
2022-11-12T20:01:23.346Z,13.37
2022-11-12T20:03:52.119Z,12.53
2022-11-12T20:06:23.281Z,11.80
2022-11-12T20:08:51.617Z,12.63
2022-11-12T20:11:22.407Z,12.30
2022-11-12T20:13:53.486Z,11.23
2022-11-12T20:16:25.527Z,11.60
2022-11-12T20:18:55.635Z,11.43
2022-11-12T20:21:24.988Z,12.27
2022-11-12T20:23:53.373Z,11.13
2022-11-12T20:26:23.716Z,10.90
2022-11-12T20:28:52.172Z,12.27
2022-11-12T20:31:21.425Z,12.10
2022-11-12T20:33:51.177Z,10.77
2022-11-12T20:36:21.332Z,11.53
2022-11-12T20:38:50.428Z,11.80
2022-11-12T20:41:20.106Z,11.57
2022-11-12T20:43:53.105Z,11.70
2022-11-12T20:46:21.710Z,12.63
2022-11-12T20:48:50.133Z,11.67
2022-11-12T20:51:25.360Z,11.27
2022-11-12T20:53:59.222Z,11.67
2022-11-12T20:56:30.958Z,12.53
2022-11-12T20:59:01.064Z,15.73
2022-11-12T21:01:31.431Z,16.43
2022-11-12T21:04:00.310Z,17.00
2022-11-12T21:06:30.502Z,15.67
2022-11-12T21:09:00.601Z,15.63
2022-11-12T21:11:29.172Z,16.33
2022-11-12T21:13:59.286Z,15.90
2022-11-12T21:16:28.852Z,15.10
2022-11-12T21:19:00.349Z,14.30
2022-11-12T21:21:31.689Z,14.47
2022-11-12T21:24:04.621Z,15.07
2022-11-12T21:26:34.341Z,13.63
2022-11-12T21:29:04.650Z,14.00
2022-11-12T21:31:35.890Z,13.40
2022-11-12T21:34:06.878Z,13.93
2022-11-12T21:36:35.635Z,13.80
2022-11-12T21:39:04.940Z,13.57
2022-11-12T21:41:33.210Z,13.83
2022-11-12T21:44:01.627Z,13.67
2022-11-12T21:46:31.520Z,12.83
2022-11-12T21:49:01.308Z,12.83
2022-11-12T21:51:31.667Z,12.00
2022-11-12T21:54:03.128Z,12.73
2022-11-12T21:56:33.381Z,13.10
2022-11-12T21:59:04.192Z,12.87
2022-11-12T22:01:34.871Z,14.20
2022-11-12T22:04:10.113Z,12.93
2022-11-12T22:06:41.635Z,12.60
2022-11-12T22:09:10.229Z,12.50
2022-11-12T22:11:38.659Z,12.63
2022-11-12T22:14:07.320Z,12.40
2022-11-12T22:16:35.577Z,12.30
2022-11-12T22:19:04.143Z,12.17
2022-11-12T22:21:39.732Z,10.83
2022-11-12T22:24:11.315Z,11.00
2022-11-12T22:26:39.827Z,11.17
2022-11-12T22:29:09.505Z,10.50
2022-11-12T22:31:38.261Z,11.23
2022-11-12T22:34:07.956Z,10.90
2022-11-12T22:36:37.923Z,11.00
2022-11-12T22:39:06.982Z,10.03
2022-11-12T22:41:35.562Z,12.03
2022-11-12T22:44:04.143Z,11.60
2022-11-12T22:46:34.558Z,11.70
2022-11-12T22:49:03.920Z,11.60
2022-11-12T22:51:36.649Z,11.47
2022-11-12T22:54:08.071Z,11.27
2022-11-12T22:56:39.062Z,10.60
2022-11-12T22:59:11.364Z,11.10
2022-11-12T23:01:42.161Z,10.07
2022-11-12T23:04:10.988Z,11.63
2022-11-12T23:06:40.592Z,10.93
2022-11-12T23:09:17.189Z,10.77
2022-11-12T23:11:45.991Z,11.70
2022-11-12T23:14:15.397Z,11.90
2022-11-12T23:16:44.586Z,11.50
2022-11-12T23:19:14.218Z,11.83
2022-11-12T23:21:45.102Z,10.83
2022-11-12T23:24:15.332Z,11.80
2022-11-12T23:26:49.200Z,12.90
2022-11-12T23:29:18.322Z,11.60
2022-11-12T23:31:47.108Z,11.87
2022-11-12T23:34:15.871Z,11.03
2022-11-12T23:36:45.779Z,11.40
2022-11-12T23:39:16.226Z,10.63
2022-11-12T23:41:44.735Z,10.50
2022-11-12T23:44:14.235Z,11.53
2022-11-12T23:46:42.877Z,11.10
2022-11-12T23:49:11.552Z,11.07
2022-11-12T23:51:40.022Z,10.60
2022-11-12T23:54:08.470Z,10.10
2022-11-12T23:56:38.478Z,10.60
2022-11-12T23:59:09.974Z,10.93
